Terminal Aerodrome Forecast
Issued by NWS

Home | Current Version | Previous Version | Text Only | Print | Product List | Glossary On
Versions: 1 2 3 4 5 6 7 8 9 10 11 12 13 14 15 16 17 18 19 20 21 22 23 24 25 26 27
294
FTUS43 KGRR 271245 AAA
TAFAZO
TAF AMD
KAZO 271245Z 2713/2812 27007KT 2SM BR VCSH OVC003
      TEMPO 2713/2716 1SM BR
     FM271600 28007KT 3SM BR OVC007
     FM271800 25004KT 5SM BR OVC012
     FM272100 26004KT P6SM OVC025
     FM280000 35004KT 4SM BR VCSH OVC015=

USA.gov is the U.S. government's official web portal to all federal, state and local government web resources and services.